createdAt,value
2017-01-30T00:00:17.055Z,58.13
2017-01-30T00:01:12.279Z,58.13
2017-01-30T00:02:13.617Z,58.10
2017-01-30T00:03:11.786Z,58.11
2017-01-30T00:04:13.302Z,58.12
2017-01-30T00:05:12.368Z,58.10
2017-01-30T00:06:12.974Z,58.12
2017-01-30T00:07:13.397Z,58.10
2017-01-30T00:08:13.310Z,58.14
2017-01-30T00:09:13.147Z,58.12
2017-01-30T00:10:12.196Z,58.12
2017-01-30T00:11:12.639Z,58.12
2017-01-30T00:12:13.116Z,57.99
2017-01-30T00:13:09.472Z,57.19
2017-01-30T00:14:12.881Z,57.20
2017-01-30T00:15:13.123Z,57.85
2017-01-30T00:16:12.737Z,57.98
2017-01-30T00:17:13.048Z,58.04
2017-01-30T00:18:12.296Z,58.06
2017-01-30T00:19:13.860Z,58.07
2017-01-30T00:20:13.571Z,58.06
2017-01-30T00:21:13.653Z,58.07
2017-01-30T00:22:12.652Z,58.10
2017-01-30T00:23:15.704Z,58.10
2017-01-30T00:24:12.921Z,58.08
2017-01-30T00:25:12.055Z,58.10
2017-01-30T00:26:12.263Z,58.06
2017-01-30T00:27:11.424Z,58.05
2017-01-30T00:28:13.070Z,57.94
2017-01-30T00:29:12.811Z,57.16
2017-01-30T00:30:12.967Z,56.98
2017-01-30T00:31:12.547Z,56.86
2017-01-30T00:32:10.768Z,56.78
2017-01-30T00:33:12.752Z,56.76
2017-01-30T00:34:12.905Z,56.79
2017-01-30T00:35:14.671Z,56.73
2017-01-30T00:36:12.646Z,56.73
2017-01-30T00:37:13.269Z,56.68
2017-01-30T00:38:12.668Z,56.70
2017-01-30T00:39:12.896Z,56.70
2017-01-30T00:40:13.140Z,56.68
2017-01-30T00:41:12.148Z,56.96
2017-01-30T00:42:12.258Z,57.58
2017-01-30T00:43:12.707Z,57.68
2017-01-30T00:44:16.274Z,56.94
2017-01-30T00:45:13.698Z,56.81
2017-01-30T00:46:13.382Z,56.71
2017-01-30T00:47:12.519Z,56.71
2017-01-30T00:48:13.125Z,56.65
2017-01-30T00:49:12.728Z,56.64
2017-01-30T00:50:12.853Z,56.66
2017-01-30T00:51:13.856Z,56.70
2017-01-30T00:52:13.721Z,56.66
2017-01-30T00:53:09.969Z,56.67
2017-01-30T00:54:16.256Z,56.62
2017-01-30T00:55:13.036Z,56.62
2017-01-30T00:56:12.156Z,56.63
2017-01-30T00:57:12.110Z,56.65
2017-01-30T00:58:18.121Z,56.62
2017-01-30T00:59:14.079Z,57.55
2017-01-30T01:00:12.828Z,57.75
2017-01-30T01:01:12.779Z,57.88
2017-01-30T01:02:12.969Z,57.91
2017-01-30T01:03:12.583Z,57.93
2017-01-30T01:04:12.571Z,57.95
2017-01-30T01:05:15.677Z,57.96
2017-01-30T01:06:12.975Z,57.97
2017-01-30T01:07:13.087Z,57.97
2017-01-30T01:08:12.736Z,57.97
2017-01-30T01:09:13.621Z,57.96
2017-01-30T01:10:12.628Z,57.99
2017-01-30T01:11:13.415Z,58.01
2017-01-30T01:12:12.451Z,58.01
2017-01-30T01:13:12.507Z,58.01
2017-01-30T01:14:12.429Z,58.03
2017-01-30T01:15:12.897Z,58.01
2017-01-30T01:16:12.992Z,58.01
2017-01-30T01:17:12.839Z,58.01
2017-01-30T01:18:13.637Z,57.98
2017-01-30T01:19:12.722Z,57.94
2017-01-30T01:20:12.841Z,57.97
2017-01-30T01:21:14.922Z,57.95
2017-01-30T01:22:14.468Z,57.98
2017-01-30T01:23:12.669Z,57.96
2017-01-30T01:24:12.644Z,57.97
2017-01-30T01:25:13.324Z,57.99
2017-01-30T01:26:15.835Z,57.99
2017-01-30T01:27:13.450Z,58.00
2017-01-30T01:28:12.599Z,57.99
2017-01-30T01:29:13.226Z,57.98
2017-01-30T01:30:13.905Z,57.98
2017-01-30T01:31:13.572Z,57.96
2017-01-30T01:32:13.170Z,57.98
2017-01-30T01:33:13.063Z,57.98
2017-01-30T01:34:12.083Z,57.99
2017-01-30T01:35:12.628Z,57.97
2017-01-30T01:36:12.694Z,57.98
2017-01-30T01:37:13.920Z,57.95
2017-01-30T01:38:12.988Z,57.98
2017-01-30T01:39:12.849Z,57.98
2017-01-30T01:40:12.935Z,57.95
2017-01-30T01:41:12.219Z,57.97
2017-01-30T01:42:13.510Z,57.95
2017-01-30T01:43:12.591Z,57.98
2017-01-30T01:44:13.267Z,57.95
2017-01-30T01:45:12.271Z,57.99
2017-01-30T01:46:12.403Z,57.95
2017-01-30T01:47:16.631Z,57.96
2017-01-30T01:48:14.137Z,58.00
2017-01-30T01:49:12.580Z,57.95
2017-01-30T01:50:13.452Z,57.95
2017-01-30T01:51:12.804Z,57.96
2017-01-30T01:52:13.429Z,57.95
2017-01-30T01:53:12.597Z,57.90
2017-01-30T01:54:13.362Z,57.96
2017-01-30T01:55:12.669Z,57.92
2017-01-30T01:56:13.531Z,57.96
2017-01-30T01:57:12.584Z,57.95
2017-01-30T01:58:12.763Z,57.96
2017-01-30T01:59:12.857Z,57.96
2017-01-30T02:00:13.048Z,57.97
2017-01-30T02:01:12.219Z,57.99
2017-01-30T02:02:12.607Z,57.99
2017-01-30T02:03:12.721Z,57.98
2017-01-30T02:04:12.787Z,57.97
2017-01-30T02:05:13.675Z,57.95
2017-01-30T02:06:11.055Z,57.98
2017-01-30T02:07:13.520Z,57.97
2017-01-30T02:08:15.757Z,57.99
2017-01-30T02:09:13.319Z,57.97
2017-01-30T02:10:13.014Z,57.98
2017-01-30T02:11:12.279Z,57.97
2017-01-30T02:12:10.536Z,57.98
2017-01-30T02:13:13.514Z,57.95
2017-01-30T02:14:14.130Z,57.98
2017-01-30T02:15:13.224Z,57.97
2017-01-30T02:16:13.469Z,57.97
2017-01-30T02:17:13.186Z,57.83
2017-01-30T02:18:14.090Z,57.02
2017-01-30T02:19:12.223Z,56.88
2017-01-30T02:20:11.289Z,56.77
2017-01-30T02:21:13.249Z,56.70
2017-01-30T02:22:12.450Z,56.67
2017-01-30T02:23:11.781Z,56.59
2017-01-30T02:24:13.662Z,56.61
2017-01-30T02:25:13.157Z,56.59
2017-01-30T02:26:12.429Z,56.55
2017-01-30T02:27:13.382Z,56.71
2017-01-30T02:28:12.688Z,57.49
2017-01-30T02:29:15.770Z,57.74
2017-01-30T02:30:13.432Z,57.79
2017-01-30T02:31:12.797Z,57.82
2017-01-30T02:32:12.892Z,57.85
2017-01-30T02:33:12.236Z,57.89
2017-01-30T02:34:12.262Z,56.96
2017-01-30T02:35:12.360Z,56.76
2017-01-30T02:36:13.033Z,56.70
2017-01-30T02:37:12.359Z,56.87
2017-01-30T02:38:12.398Z,57.52
2017-01-30T02:39:13.229Z,57.75
2017-01-30T02:40:12.413Z,57.83
2017-01-30T02:41:12.952Z,57.84
2017-01-30T02:42:12.048Z,57.88
2017-01-30T02:43:12.312Z,57.91
2017-01-30T02:44:13.015Z,57.88
2017-01-30T02:45:14.243Z,57.93
2017-01-30T02:46:12.806Z,57.88
2017-01-30T02:47:14.859Z,57.89
2017-01-30T02:48:11.698Z,57.91
2017-01-30T02:49:12.689Z,57.90
2017-01-30T02:50:14.102Z,57.89
2017-01-30T02:51:12.425Z,57.88
2017-01-30T02:52:13.040Z,57.87
2017-01-30T02:53:13.261Z,57.89
2017-01-30T02:54:12.465Z,57.88
2017-01-30T02:55:12.794Z,57.88
2017-01-30T02:56:13.789Z,57.90
2017-01-30T02:57:14.389Z,57.90
2017-01-30T02:58:09.650Z,57.90
2017-01-30T02:59:13.882Z,57.89
2017-01-30T03:00:16.205Z,57.90
2017-01-30T03:01:12.313Z,57.93
2017-01-30T03:02:13.091Z,57.94
2017-01-30T03:03:12.268Z,57.93
2017-01-30T03:04:12.527Z,57.93
2017-01-30T03:05:13.653Z,57.89
2017-01-30T03:06:14.071Z,57.93
2017-01-30T03:07:14.270Z,57.94
2017-01-30T03:08:12.532Z,57.91
2017-01-30T03:09:13.281Z,57.78
2017-01-30T03:10:12.643Z,56.96
2017-01-30T03:11:15.461Z,57.07
2017-01-30T03:12:11.543Z,57.62
2017-01-30T03:13:12.548Z,57.78
2017-01-30T03:14:13.115Z,57.70
2017-01-30T03:15:12.438Z,56.93
2017-01-30T03:16:12.613Z,56.75
2017-01-30T03:17:12.822Z,56.82
2017-01-30T03:18:13.041Z,57.54
2017-01-30T03:19:11.216Z,57.67
2017-01-30T03:20:14.960Z,57.75
2017-01-30T03:21:12.187Z,57.81
2017-01-30T03:22:12.248Z,57.80
2017-01-30T03:23:14.111Z,57.83
2017-01-30T03:24:11.447Z,57.85
2017-01-30T03:25:12.728Z,57.84
2017-01-30T03:26:13.549Z,57.88
2017-01-30T03:27:12.720Z,57.85
2017-01-30T03:28:13.030Z,57.83
2017-01-30T03:29:12.206Z,57.90
2017-01-30T03:30:12.547Z,57.89
2017-01-30T03:31:13.295Z,57.89
2017-01-30T03:32:15.597Z,57.90
2017-01-30T03:33:12.758Z,57.92
2017-01-30T03:34:13.558Z,57.78
2017-01-30T03:35:13.097Z,56.96
2017-01-30T03:36:12.371Z,56.77
2017-01-30T03:37:13.531Z,56.69
2017-01-30T03:38:13.342Z,56.62
2017-01-30T03:39:13.322Z,56.52
2017-01-30T03:40:13.720Z,56.60
2017-01-30T03:41:10.501Z,56.63
2017-01-30T03:42:11.733Z,56.52
2017-01-30T03:43:11.603Z,56.41
2017-01-30T03:44:13.033Z,57.42
2017-01-30T03:45:12.387Z,57.64
2017-01-30T03:46:13.054Z,57.73
2017-01-30T03:47:12.190Z,57.81
2017-01-30T03:48:13.001Z,57.76
2017-01-30T03:49:12.798Z,57.83
2017-01-30T03:50:11.226Z,57.88
2017-01-30T03:51:15.179Z,57.86
2017-01-30T03:52:14.562Z,56.95
2017-01-30T03:53:14.066Z,56.75
2017-01-30T03:54:13.361Z,56.64
2017-01-30T03:55:12.943Z,56.63
2017-01-30T03:56:12.728Z,56.61
2017-01-30T03:57:13.312Z,56.54
2017-01-30T03:58:12.550Z,56.71
2017-01-30T03:59:12.866Z,57.47
2017-01-30T04:00:12.991Z,57.65
2017-01-30T04:01:12.240Z,57.71
2017-01-30T04:02:12.362Z,57.74
2017-01-30T04:03:13.066Z,57.62
2017-01-30T04:04:12.801Z,56.91
2017-01-30T04:05:15.151Z,56.92
2017-01-30T04:06:12.269Z,57.57
2017-01-30T04:07:12.995Z,57.70
2017-01-30T04:08:12.142Z,57.74
2017-01-30T04:09:13.089Z,57.75
2017-01-30T04:10:14.063Z,57.80
2017-01-30T04:11:13.153Z,57.83
2017-01-30T04:12:13.776Z,57.81
2017-01-30T04:13:13.197Z,57.82
2017-01-30T04:14:13.542Z,57.83
2017-01-30T04:15:12.865Z,57.86
2017-01-30T04:16:15.001Z,57.88
2017-01-30T04:17:12.862Z,57.76
2017-01-30T04:18:12.934Z,56.93
2017-01-30T04:19:12.280Z,56.75
2017-01-30T04:20:14.759Z,56.72
2017-01-30T04:21:14.121Z,57.51
2017-01-30T04:22:13.498Z,57.71
2017-01-30T04:23:13.051Z,57.78
2017-01-30T04:24:13.758Z,57.78
2017-01-30T04:25:13.347Z,57.80
2017-01-30T04:26:13.003Z,57.83
2017-01-30T04:27:12.011Z,57.85
2017-01-30T04:28:12.652Z,57.82
2017-01-30T04:29:14.233Z,57.87
2017-01-30T04:30:12.622Z,57.83
2017-01-30T04:31:15.873Z,57.86
2017-01-30T04:32:13.428Z,57.83
2017-01-30T04:33:13.408Z,57.82
2017-01-30T04:34:12.485Z,57.86
2017-01-30T04:35:12.592Z,57.82
2017-01-30T04:36:13.391Z,57.67
2017-01-30T04:37:13.405Z,57.81
2017-01-30T04:38:12.450Z,57.82
2017-01-30T04:39:12.518Z,57.82
2017-01-30T04:40:12.792Z,57.82
2017-01-30T04:41:13.733Z,57.82
2017-01-30T04:42:13.914Z,57.85
2017-01-30T04:43:13.100Z,57.88
2017-01-30T04:44:12.215Z,57.88
2017-01-30T04:45:13.129Z,57.84
2017-01-30T04:46:11.414Z,57.84
2017-01-30T04:47:13.176Z,57.80
2017-01-30T04:48:15.820Z,57.84
2017-01-30T04:49:12.919Z,57.84
2017-01-30T04:50:14.414Z,57.87
2017-01-30T04:51:12.704Z,57.83
2017-01-30T04:52:14.647Z,57.82
2017-01-30T04:53:13.348Z,57.86
2017-01-30T04:54:09.701Z,57.87
2017-01-30T04:55:13.257Z,57.87
2017-01-30T04:56:13.136Z,57.83
2017-01-30T04:57:12.998Z,57.86
2017-01-30T04:58:14.078Z,57.85
2017-01-30T04:59:13.667Z,57.83
2017-01-30T05:00:12.961Z,57.87
2017-01-30T05:01:12.204Z,57.81
2017-01-30T05:02:12.920Z,57.71
2017-01-30T05:03:14.793Z,56.91
2017-01-30T05:04:13.108Z,56.74
2017-01-30T05:05:12.777Z,56.62
2017-01-30T05:06:14.484Z,56.57
2017-01-30T05:07:17.453Z,56.56
2017-01-30T05:08:13.360Z,56.58
2017-01-30T05:09:13.089Z,57.43
2017-01-30T05:10:09.938Z,57.63
2017-01-30T05:11:13.618Z,57.68
2017-01-30T05:12:13.243Z,57.78
2017-01-30T05:13:12.556Z,57.77
2017-01-30T05:14:12.695Z,57.79
2017-01-30T05:15:13.672Z,57.79
2017-01-30T05:16:13.647Z,57.80
2017-01-30T05:17:13.399Z,57.80
2017-01-30T05:18:13.470Z,57.83
2017-01-30T05:19:14.219Z,57.87
2017-01-30T05:20:15.237Z,57.83
2017-01-30T05:21:10.654Z,57.86
2017-01-30T05:22:12.628Z,57.87
2017-01-30T05:23:12.795Z,57.90
2017-01-30T05:24:12.585Z,57.92
2017-01-30T05:25:16.572Z,57.88
2017-01-30T05:26:16.546Z,57.87
2017-01-30T05:27:13.070Z,57.90
2017-01-30T05:28:12.710Z,57.83
2017-01-30T05:29:14.876Z,57.87
2017-01-30T05:30:13.995Z,57.85
2017-01-30T05:31:10.390Z,57.84
2017-01-30T05:32:12.378Z,57.89
2017-01-30T05:33:13.068Z,57.87
2017-01-30T05:34:13.003Z,57.82
2017-01-30T05:35:12.804Z,57.88
2017-01-30T05:36:14.617Z,57.84
2017-01-30T05:37:13.463Z,57.72
2017-01-30T05:38:12.667Z,56.95
2017-01-30T05:39:13.369Z,56.74
2017-01-30T05:40:12.516Z,56.63
2017-01-30T05:41:13.399Z,56.59
2017-01-30T05:42:14.159Z,56.55
2017-01-30T05:43:16.477Z,56.54
2017-01-30T05:44:12.629Z,56.50
2017-01-30T05:45:13.690Z,56.51
2017-01-30T05:46:12.898Z,56.52
2017-01-30T05:47:15.605Z,56.48
2017-01-30T05:48:13.448Z,56.45
2017-01-30T05:49:12.560Z,56.50
2017-01-30T05:50:14.615Z,56.48
2017-01-30T05:51:10.833Z,56.41
2017-01-30T05:52:12.113Z,56.52
2017-01-30T05:53:14.107Z,56.51
2017-01-30T05:54:12.547Z,56.63
2017-01-30T05:55:14.199Z,57.59
2017-01-30T05:56:13.911Z,55.72
2017-01-30T05:57:13.956Z,55.81
2017-01-30T05:58:12.148Z,54.35
2017-01-30T05:59:13.796Z,54.58
2017-01-30T06:00:15.332Z,56.74
2017-01-30T06:01:16.508Z,57.95
2017-01-30T06:02:15.095Z,56.23
2017-01-30T06:03:13.139Z,55.06
2017-01-30T06:04:11.347Z,54.69
2017-01-30T06:05:12.737Z,55.37
2017-01-30T06:06:11.377Z,56.18
2017-01-30T06:07:13.438Z,56.69
2017-01-30T06:08:12.535Z,57.34
2017-01-30T06:09:15.273Z,57.27
2017-01-30T06:10:13.397Z,57.19
2017-01-30T06:11:12.527Z,57.25
2017-01-30T06:12:13.236Z,57.22
2017-01-30T06:13:13.639Z,57.14
2017-01-30T06:14:13.347Z,57.05
2017-01-30T06:15:13.403Z,56.99
2017-01-30T06:16:12.661Z,56.91
2017-01-30T06:17:13.476Z,56.83
2017-01-30T06:18:12.616Z,56.77
2017-01-30T06:19:17.708Z,56.73
2017-01-30T06:20:11.821Z,56.68
2017-01-30T06:21:13.128Z,56.67
2017-01-30T06:22:12.936Z,56.66
2017-01-30T06:23:12.568Z,56.63
2017-01-30T06:24:13.103Z,56.63
2017-01-30T06:25:12.701Z,56.61
2017-01-30T06:26:12.907Z,56.59
2017-01-30T06:27:13.453Z,56.60
2017-01-30T06:28:12.671Z,56.63
2017-01-30T06:29:16.699Z,56.63
2017-01-30T06:30:13.475Z,56.66
2017-01-30T06:31:12.807Z,56.70
2017-01-30T06:32:14.275Z,56.70
2017-01-30T06:33:12.964Z,56.72
2017-01-30T06:34:10.207Z,56.73
2017-01-30T06:35:13.203Z,56.72
2017-01-30T06:36:15.586Z,56.74
2017-01-30T06:37:12.931Z,56.79
2017-01-30T06:38:12.889Z,56.79
2017-01-30T06:39:13.074Z,56.84
2017-01-30T06:40:15.915Z,56.85
2017-01-30T06:41:14.907Z,56.88
2017-01-30T06:42:14.008Z,56.92
2017-01-30T06:43:13.016Z,56.93
2017-01-30T06:44:13.110Z,56.96
2017-01-30T06:45:12.300Z,56.94
2017-01-30T06:46:13.069Z,57.01
2017-01-30T06:47:12.299Z,57.01
2017-01-30T06:48:13.327Z,57.02
2017-01-30T06:49:12.536Z,57.04
2017-01-30T06:50:12.757Z,57.07
2017-01-30T06:51:12.979Z,57.05
2017-01-30T06:52:12.547Z,57.11
2017-01-30T06:53:15.832Z,57.17
2017-01-30T06:54:11.670Z,57.18
2017-01-30T06:55:13.833Z,57.19
2017-01-30T06:56:13.602Z,57.20
2017-01-30T06:57:16.222Z,57.23
2017-01-30T06:58:12.981Z,57.21
2017-01-30T06:59:12.826Z,57.21
2017-01-30T07:00:13.716Z,57.28
2017-01-30T07:01:14.844Z,57.31
2017-01-30T07:02:11.645Z,57.38
2017-01-30T07:03:13.542Z,57.31
2017-01-30T07:04:12.680Z,57.33
2017-01-30T07:05:13.643Z,57.34
2017-01-30T07:06:12.721Z,57.35
2017-01-30T07:07:13.539Z,57.37
2017-01-30T07:08:13.168Z,57.38
2017-01-30T07:09:13.074Z,57.37
2017-01-30T07:10:15.094Z,57.37
2017-01-30T07:11:13.186Z,57.40
2017-01-30T07:12:12.289Z,57.40
2017-01-30T07:13:14.261Z,57.40
2017-01-30T07:14:12.536Z,57.44
2017-01-30T07:15:12.807Z,57.44
2017-01-30T07:16:13.689Z,57.44
2017-01-30T07:17:13.500Z,57.45
2017-01-30T07:18:11.523Z,57.45
2017-01-30T07:19:12.531Z,57.46
2017-01-30T07:20:13.042Z,57.46
2017-01-30T07:21:12.239Z,57.46
2017-01-30T07:22:13.272Z,57.48
2017-01-30T07:23:12.838Z,57.45
2017-01-30T07:24:11.789Z,57.47
2017-01-30T07:25:12.107Z,57.52
2017-01-30T07:26:13.129Z,57.45
2017-01-30T07:27:13.919Z,56.56
2017-01-30T07:28:13.664Z,56.39
2017-01-30T07:29:15.638Z,56.41
2017-01-30T07:30:13.441Z,57.01
2017-01-30T07:31:13.131Z,56.46
2017-01-30T07:32:12.439Z,57.23
2017-01-30T07:33:12.828Z,57.40
2017-01-30T07:34:13.460Z,57.48
2017-01-30T07:35:13.767Z,57.53
2017-01-30T07:36:13.601Z,57.54
2017-01-30T07:37:13.212Z,57.57
2017-01-30T07:38:12.353Z,57.58
2017-01-30T07:39:12.561Z,57.59
2017-01-30T07:40:13.102Z,57.48
2017-01-30T07:41:11.057Z,56.67
2017-01-30T07:42:12.327Z,57.39
2017-01-30T07:43:13.105Z,57.49
2017-01-30T07:44:13.283Z,57.52
2017-01-30T07:45:13.368Z,57.57
2017-01-30T07:46:16.723Z,57.62
2017-01-30T07:47:13.255Z,57.58
2017-01-30T07:48:12.664Z,57.63
2017-01-30T07:49:13.047Z,57.61
2017-01-30T07:50:13.331Z,57.63
2017-01-30T07:51:12.979Z,57.61
2017-01-30T07:52:12.161Z,57.59
2017-01-30T07:53:12.937Z,57.61
2017-01-30T07:54:12.308Z,57.60
2017-01-30T07:55:13.182Z,57.60
2017-01-30T07:56:12.507Z,57.62
2017-01-30T07:57:13.095Z,57.62
2017-01-30T07:58:12.377Z,57.61
2017-01-30T07:59:11.389Z,57.63
2017-01-30T08:00:12.838Z,57.63
2017-01-30T08:01:13.131Z,57.63
2017-01-30T08:02:12.770Z,57.64
2017-01-30T08:03:16.436Z,57.62
2017-01-30T08:04:10.837Z,57.59
2017-01-30T08:05:13.127Z,57.62
2017-01-30T08:06:11.501Z,57.62
2017-01-30T08:07:12.755Z,57.61
2017-01-30T08:08:13.418Z,57.63
2017-01-30T08:09:13.198Z,57.64
2017-01-30T08:10:12.620Z,57.65
2017-01-30T08:11:12.720Z,57.65
2017-01-30T08:12:12.861Z,57.66
2017-01-30T08:13:13.613Z,57.65
2017-01-30T08:14:13.394Z,57.70
2017-01-30T08:15:14.236Z,57.68
2017-01-30T08:16:12.879Z,57.55
2017-01-30T08:17:15.122Z,56.76
2017-01-30T08:18:15.547Z,56.56
2017-01-30T08:19:12.781Z,56.76
2017-01-30T08:20:16.007Z,57.37
2017-01-30T08:21:13.203Z,57.50
2017-01-30T08:22:12.798Z,57.57
2017-01-30T08:23:11.860Z,57.64
2017-01-30T08:24:14.792Z,57.62
2017-01-30T08:25:12.908Z,57.66
2017-01-30T08:26:13.702Z,57.66
2017-01-30T08:27:13.766Z,57.65
2017-01-30T08:28:13.611Z,57.68
2017-01-30T08:29:12.800Z,57.65
2017-01-30T08:30:12.955Z,57.61
2017-01-30T08:31:12.176Z,57.60
2017-01-30T08:32:13.369Z,57.63
2017-01-30T08:33:12.462Z,57.62
2017-01-30T08:34:12.595Z,57.63
2017-01-30T08:35:14.957Z,57.68
2017-01-30T08:36:12.262Z,57.65
2017-01-30T08:37:14.726Z,57.64
2017-01-30T08:38:13.052Z,57.63
2017-01-30T08:39:12.169Z,57.65
2017-01-30T08:40:12.392Z,57.63
2017-01-30T08:41:13.450Z,57.64
2017-01-30T08:42:12.558Z,57.62
2017-01-30T08:43:14.448Z,57.63
2017-01-30T08:44:12.539Z,57.67
2017-01-30T08:45:13.288Z,57.64
2017-01-30T08:46:12.853Z,57.62
2017-01-30T08:47:11.608Z,57.60
2017-01-30T08:48:13.063Z,57.68
2017-01-30T08:49:11.475Z,57.65
2017-01-30T08:50:13.834Z,57.64
2017-01-30T08:51:11.342Z,57.62
2017-01-30T08:52:15.243Z,57.63
2017-01-30T08:53:13.124Z,57.54
2017-01-30T08:54:11.313Z,56.70
2017-01-30T08:55:12.128Z,57.43
2017-01-30T08:56:12.274Z,57.53
2017-01-30T08:57:13.068Z,57.59
2017-01-30T08:58:12.211Z,57.61
2017-01-30T08:59:12.990Z,57.64
2017-01-30T09:00:12.327Z,57.61
2017-01-30T09:01:13.223Z,57.70
2017-01-30T09:02:12.416Z,57.65
2017-01-30T09:03:13.128Z,57.60
2017-01-30T09:04:12.303Z,57.66
2017-01-30T09:05:12.358Z,57.65
2017-01-30T09:06:14.164Z,57.68
2017-01-30T09:07:12.956Z,57.62
2017-01-30T09:08:12.685Z,57.61
2017-01-30T09:09:15.801Z,57.63
2017-01-30T09:10:13.263Z,57.66
2017-01-30T09:11:15.131Z,57.62
2017-01-30T09:12:14.242Z,57.65
2017-01-30T09:13:12.887Z,57.65
2017-01-30T09:14:13.081Z,57.65
2017-01-30T09:15:13.256Z,57.66
2017-01-30T09:16:14.036Z,57.67
2017-01-30T09:17:12.268Z,57.66
2017-01-30T09:18:12.324Z,57.63
2017-01-30T09:19:12.436Z,57.62
2017-01-30T09:20:13.158Z,57.59
2017-01-30T09:21:12.726Z,57.63
2017-01-30T09:22:12.770Z,57.59
2017-01-30T09:23:13.018Z,57.71
2017-01-30T09:24:10.004Z,57.69
2017-01-30T09:25:13.468Z,57.63
2017-01-30T09:26:16.631Z,57.64
2017-01-30T09:27:12.700Z,57.58
2017-01-30T09:28:13.396Z,57.62
2017-01-30T09:29:13.166Z,57.61
2017-01-30T09:30:12.450Z,57.59
2017-01-30T09:31:12.690Z,57.61
2017-01-30T09:32:15.947Z,57.62
2017-01-30T09:33:12.207Z,57.57
2017-01-30T09:34:13.986Z,57.58
2017-01-30T09:35:12.973Z,57.60
2017-01-30T09:36:12.755Z,57.60
2017-01-30T09:37:13.527Z,57.58
2017-01-30T09:38:13.237Z,57.60
2017-01-30T09:39:12.381Z,57.61
2017-01-30T09:40:13.120Z,57.61
2017-01-30T09:41:11.371Z,57.48
2017-01-30T09:42:13.386Z,56.67
2017-01-30T09:43:13.621Z,57.40
2017-01-30T09:44:13.719Z,57.52
2017-01-30T09:45:11.767Z,57.84
2017-01-30T09:46:13.902Z,57.54
2017-01-30T09:47:12.443Z,57.56
2017-01-30T09:48:12.384Z,57.56
2017-01-30T09:49:12.569Z,57.59
2017-01-30T09:50:13.136Z,57.58
2017-01-30T09:51:12.966Z,57.59
2017-01-30T09:52:11.296Z,57.55
2017-01-30T09:53:15.968Z,56.69
2017-01-30T09:54:12.194Z,57.39
2017-01-30T09:55:12.500Z,57.49
2017-01-30T09:56:13.248Z,57.55
2017-01-30T09:57:11.442Z,57.57
2017-01-30T09:58:17.278Z,57.07
2017-01-30T09:59:13.272Z,57.40
2017-01-30T10:00:12.504Z,57.49
2017-01-30T10:01:12.817Z,57.50
2017-01-30T10:02:13.657Z,57.49
2017-01-30T10:03:10.475Z,57.52
2017-01-30T10:04:10.758Z,57.54
2017-01-30T10:05:12.876Z,56.79
2017-01-30T10:06:13.543Z,57.35
2017-01-30T10:07:12.859Z,57.46
2017-01-30T10:08:14.091Z,57.50
2017-01-30T10:09:12.130Z,57.53
2017-01-30T10:10:13.045Z,57.50
2017-01-30T10:11:12.037Z,57.55
2017-01-30T10:12:12.445Z,57.59
2017-01-30T10:13:15.859Z,57.55
2017-01-30T10:14:13.892Z,57.51
2017-01-30T10:15:13.175Z,57.49
2017-01-30T10:16:13.028Z,57.48
2017-01-30T10:17:13.361Z,57.47
2017-01-30T10:18:12.589Z,57.52
2017-01-30T10:19:13.243Z,57.48
2017-01-30T10:20:12.491Z,56.65
2017-01-30T10:21:13.385Z,56.44
2017-01-30T10:22:13.008Z,56.40
2017-01-30T10:23:12.731Z,56.32
2017-01-30T10:24:14.581Z,56.27
2017-01-30T10:25:13.518Z,56.21
2017-01-30T10:26:13.289Z,56.29
2017-01-30T10:27:13.019Z,56.48
2017-01-30T10:28:12.898Z,57.10
2017-01-30T10:29:13.657Z,57.20
2017-01-30T10:30:16.371Z,57.27
2017-01-30T10:31:12.596Z,57.35
2017-01-30T10:32:12.856Z,57.38
2017-01-30T10:33:12.861Z,57.39
2017-01-30T10:34:15.719Z,57.39
2017-01-30T10:35:12.970Z,57.41
2017-01-30T10:36:12.231Z,57.40
2017-01-30T10:37:12.923Z,57.37
2017-01-30T10:38:13.111Z,57.38
2017-01-30T10:39:12.344Z,57.40
2017-01-30T10:40:13.146Z,57.41
2017-01-30T10:41:12.090Z,57.40
2017-01-30T10:42:12.334Z,57.38
2017-01-30T10:43:12.959Z,57.37
2017-01-30T10:44:13.874Z,57.39
2017-01-30T10:45:16.552Z,57.34
2017-01-30T10:46:13.308Z,57.33
2017-01-30T10:47:13.388Z,57.34
2017-01-30T10:48:13.260Z,57.20
2017-01-30T10:49:12.475Z,56.43
2017-01-30T10:50:13.355Z,57.14
2017-01-30T10:51:14.359Z,57.25
2017-01-30T10:52:12.405Z,57.31
2017-01-30T10:53:12.646Z,57.33
2017-01-30T10:54:12.666Z,57.34
2017-01-30T10:55:12.925Z,57.35
2017-01-30T10:56:13.798Z,57.44
2017-01-30T10:57:11.059Z,57.45
2017-01-30T10:58:13.218Z,57.44
2017-01-30T10:59:12.642Z,57.43
2017-01-30T11:00:16.480Z,57.42
2017-01-30T11:01:13.457Z,57.45
2017-01-30T11:02:14.320Z,57.42
2017-01-30T11:03:15.469Z,57.40
2017-01-30T11:04:13.116Z,57.46
2017-01-30T11:05:12.311Z,57.50
2017-01-30T11:06:14.138Z,57.43
2017-01-30T11:07:11.459Z,57.33
2017-01-30T11:08:12.741Z,57.37
2017-01-30T11:09:12.836Z,57.42
2017-01-30T11:10:13.435Z,57.40
2017-01-30T11:11:13.407Z,57.39
2017-01-30T11:12:13.650Z,57.42
2017-01-30T11:13:12.644Z,57.41
2017-01-30T11:14:15.351Z,57.41
2017-01-30T11:15:16.180Z,57.37
2017-01-30T11:16:13.134Z,57.41
2017-01-30T11:17:14.900Z,57.44
2017-01-30T11:18:13.676Z,57.41
2017-01-30T11:19:12.999Z,57.40
2017-01-30T11:20:12.523Z,57.47
2017-01-30T11:21:13.341Z,57.43
2017-01-30T11:22:13.001Z,57.40
2017-01-30T11:23:14.262Z,57.46
2017-01-30T11:24:12.281Z,57.40
2017-01-30T11:25:12.848Z,57.45
2017-01-30T11:26:13.737Z,57.41
2017-01-30T11:27:12.869Z,57.44
2017-01-30T11:28:13.013Z,57.43
2017-01-30T11:29:13.077Z,57.39
2017-01-30T11:30:13.288Z,57.30
2017-01-30T11:31:12.871Z,56.50
2017-01-30T11:32:16.475Z,56.33
2017-01-30T11:33:13.562Z,56.23
2017-01-30T11:34:13.853Z,56.46
2017-01-30T11:35:14.749Z,57.09
2017-01-30T11:36:12.866Z,57.22
2017-01-30T11:37:13.540Z,57.31
2017-01-30T11:38:12.856Z,57.34
2017-01-30T11:39:14.749Z,57.34
2017-01-30T11:40:13.759Z,57.25
2017-01-30T11:41:12.732Z,56.50
2017-01-30T11:42:14.609Z,56.28
2017-01-30T11:43:12.721Z,56.22
2017-01-30T11:44:12.882Z,56.34
2017-01-30T11:45:13.822Z,57.03
2017-01-30T11:46:12.908Z,57.20
2017-01-30T11:47:16.247Z,57.29
2017-01-30T11:48:12.880Z,57.33
2017-01-30T11:49:13.239Z,57.40
2017-01-30T11:50:13.047Z,57.37
2017-01-30T11:51:12.247Z,57.41
2017-01-30T11:52:12.835Z,57.39
2017-01-30T11:53:13.589Z,57.39
2017-01-30T11:54:14.277Z,57.43
2017-01-30T11:55:12.604Z,57.43
2017-01-30T11:56:13.289Z,57.40
2017-01-30T11:57:12.947Z,57.41
2017-01-30T11:58:12.682Z,57.39
2017-01-30T11:59:11.712Z,57.43
2017-01-30T12:00:13.429Z,57.45
2017-01-30T12:01:14.871Z,57.47
2017-01-30T12:02:16.231Z,57.46
2017-01-30T12:03:14.966Z,57.41
2017-01-30T12:04:12.759Z,57.44
2017-01-30T12:05:12.991Z,57.50
2017-01-30T12:06:12.125Z,57.50
2017-01-30T12:07:12.798Z,57.46
2017-01-30T12:08:13.429Z,57.43
2017-01-30T12:09:13.225Z,57.47
2017-01-30T12:10:13.537Z,57.43
2017-01-30T12:11:12.910Z,57.48
2017-01-30T12:12:14.299Z,57.51
2017-01-30T12:13:12.399Z,57.49
2017-01-30T12:14:12.807Z,57.53
2017-01-30T12:15:13.671Z,57.52
2017-01-30T12:16:13.801Z,57.50
2017-01-30T12:17:16.519Z,57.48
2017-01-30T12:18:13.208Z,57.49
2017-01-30T12:19:12.439Z,57.50
2017-01-30T12:20:13.188Z,57.49
2017-01-30T12:21:12.560Z,57.48
2017-01-30T12:22:13.416Z,57.47
2017-01-30T12:23:14.005Z,57.46
2017-01-30T12:24:13.788Z,57.47
2017-01-30T12:25:13.463Z,57.48
2017-01-30T12:26:12.659Z,57.49
2017-01-30T12:27:13.889Z,57.44
2017-01-30T12:28:14.186Z,57.47
2017-01-30T12:29:13.805Z,57.42
2017-01-30T12:30:13.447Z,57.42
2017-01-30T12:31:12.677Z,57.43
2017-01-30T12:32:16.771Z,57.42
2017-01-30T12:33:12.963Z,57.47
2017-01-30T12:34:09.447Z,57.42
2017-01-30T12:35:11.319Z,57.45
2017-01-30T12:36:12.290Z,57.42
2017-01-30T12:37:12.531Z,57.43
2017-01-30T12:38:12.645Z,57.50
2017-01-30T12:39:15.649Z,57.48
2017-01-30T12:40:13.393Z,57.47
2017-01-30T12:41:12.629Z,57.42
2017-01-30T12:42:13.050Z,57.44
2017-01-30T12:43:12.209Z,57.44
2017-01-30T12:44:13.391Z,57.46
2017-01-30T12:45:12.685Z,57.45
2017-01-30T12:46:13.230Z,57.50
2017-01-30T12:47:15.905Z,57.49
2017-01-30T12:48:12.889Z,57.45
2017-01-30T12:49:13.266Z,57.43
2017-01-30T12:50:15.034Z,57.47
2017-01-30T12:51:13.626Z,57.43
2017-01-30T12:52:12.908Z,57.45